sensor_id;sensor_type;location;lat;lon;timestamp;P1;durP1;ratioP1;P2;durP2;ratioP2
70126;SDS011;57491;42.694;23.314;2022-09-28T00:01:49;34.42;;;16.55;;
70126;SDS011;57491;42.694;23.314;2022-09-28T00:04:17;26.20;;;16.30;;
70126;SDS011;57491;42.694;23.314;2022-09-28T00:09:14;25.17;;;15.25;;
70126;SDS011;57491;42.694;23.314;2022-09-28T00:11:42;26.50;;;16.10;;
70126;SDS011;57491;42.694;23.314;2022-09-28T00:14:10;33.20;;;17.05;;
70126;SDS011;57491;42.694;23.314;2022-09-28T00:16:38;31.40;;;16.37;;
70126;SDS011;57491;42.694;23.314;2022-09-28T00:19:07;27.33;;;16.02;;
70126;SDS011;57491;42.694;23.314;2022-09-28T00:21:36;26.60;;;17.58;;
70126;SDS011;57491;42.694;23.314;2022-09-28T00:24:05;26.70;;;16.13;;
70126;SDS011;57491;42.694;23.314;2022-09-28T00:26:42;25.83;;;15.93;;
70126;SDS011;57491;42.694;23.314;2022-09-28T00:29:13;28.33;;;15.82;;
70126;SDS011;57491;42.694;23.314;2022-09-28T00:31:43;24.20;;;16.30;;
70126;SDS011;57491;42.694;23.314;2022-09-28T00:34:10;28.95;;;16.52;;
70126;SDS011;57491;42.694;23.314;2022-09-28T00:36:38;25.42;;;16.25;;
70126;SDS011;57491;42.694;23.314;2022-09-28T00:39:08;26.63;;;16.73;;
70126;SDS011;57491;42.694;23.314;2022-09-28T00:41:36;24.77;;;14.40;;
70126;SDS011;57491;42.694;23.314;2022-09-28T00:47:06;18.35;;;12.73;;
70126;SDS011;57491;42.694;23.314;2022-09-28T00:49:56;22.65;;;14.20;;
70126;SDS011;57491;42.694;23.314;2022-09-28T00:52:29;18.60;;;13.10;;
70126;SDS011;57491;42.694;23.314;2022-09-28T00:54:59;21.38;;;13.02;;
70126;SDS011;57491;42.694;23.314;2022-09-28T00:57:29;16.27;;;10.73;;
70126;SDS011;57491;42.694;23.314;2022-09-28T00:59:58;15.52;;;9.45;;
70126;SDS011;57491;42.694;23.314;2022-09-28T01:02:27;13.13;;;9.30;;
70126;SDS011;57491;42.694;23.314;2022-09-28T01:04:55;14.70;;;9.00;;
70126;SDS011;57491;42.694;23.314;2022-09-28T01:07:24;16.52;;;8.90;;
70126;SDS011;57491;42.694;23.314;2022-09-28T01:09:53;16.02;;;10.27;;
70126;SDS011;57491;42.694;23.314;2022-09-28T01:12:20;19.75;;;10.05;;
70126;SDS011;57491;42.694;23.314;2022-09-28T01:14:47;12.82;;;9.10;;
70126;SDS011;57491;42.694;23.314;2022-09-28T01:17:18;20.35;;;10.82;;
70126;SDS011;57491;42.694;23.314;2022-09-28T01:19:57;19.45;;;11.57;;
70126;SDS011;57491;42.694;23.314;2022-09-28T01:22:41;44.03;;;14.98;;
70126;SDS011;57491;42.694;23.314;2022-09-28T01:25:33;43.63;;;15.00;;
70126;SDS011;57491;42.694;23.314;2022-09-28T01:28:08;26.20;;;12.88;;
70126;SDS011;57491;42.694;23.314;2022-09-28T01:30:40;36.45;;;14.38;;
70126;SDS011;57491;42.694;23.314;2022-09-28T01:33:12;59.65;;;16.75;;
70126;SDS011;57491;42.694;23.314;2022-09-28T01:35:46;24.77;;;14.88;;
70126;SDS011;57491;42.694;23.314;2022-09-28T01:38:18;25.25;;;14.15;;
70126;SDS011;57491;42.694;23.314;2022-09-28T01:40:48;42.45;;;15.80;;
70126;SDS011;57491;42.694;23.314;2022-09-28T01:43:19;31.83;;;13.68;;
70126;SDS011;57491;42.694;23.314;2022-09-28T01:45:51;26.42;;;13.05;;
70126;SDS011;57491;42.694;23.314;2022-09-28T01:48:22;29.63;;;14.45;;
70126;SDS011;57491;42.694;23.314;2022-09-28T01:50:56;33.25;;;15.13;;
70126;SDS011;57491;42.694;23.314;2022-09-28T01:53:29;26.40;;;12.93;;
70126;SDS011;57491;42.694;23.314;2022-09-28T01:56:02;31.30;;;14.90;;
70126;SDS011;57491;42.694;23.314;2022-09-28T01:58:36;27.52;;;13.90;;
70126;SDS011;57491;42.694;23.314;2022-09-28T02:01:08;29.02;;;15.45;;
70126;SDS011;57491;42.694;23.314;2022-09-28T02:03:42;57.83;;;14.90;;
70126;SDS011;57491;42.694;23.314;2022-09-28T02:06:14;85.53;;;17.13;;
70126;SDS011;57491;42.694;23.314;2022-09-28T02:08:48;51.90;;;17.17;;
70126;SDS011;57491;42.694;23.314;2022-09-28T02:11:20;43.20;;;14.02;;
70126;SDS011;57491;42.694;23.314;2022-09-28T02:13:50;31.45;;;15.43;;
70126;SDS011;57491;42.694;23.314;2022-09-28T02:16:21;32.00;;;15.68;;
70126;SDS011;57491;42.694;23.314;2022-09-28T02:18:52;50.53;;;15.40;;
70126;SDS011;57491;42.694;23.314;2022-09-28T02:21:21;23.80;;;13.90;;
70126;SDS011;57491;42.694;23.314;2022-09-28T02:23:51;31.67;;;15.30;;
70126;SDS011;57491;42.694;23.314;2022-09-28T02:26:25;27.55;;;14.10;;
70126;SDS011;57491;42.694;23.314;2022-09-28T02:28:58;28.70;;;14.70;;
70126;SDS011;57491;42.694;23.314;2022-09-28T02:31:25;34.78;;;14.98;;
70126;SDS011;57491;42.694;23.314;2022-09-28T02:36:21;27.60;;;14.05;;
70126;SDS011;57491;42.694;23.314;2022-09-28T02:38:50;29.13;;;13.82;;
70126;SDS011;57491;42.694;23.314;2022-09-28T02:41:20;36.60;;;15.82;;
70126;SDS011;57491;42.694;23.314;2022-09-28T02:44:00;30.55;;;16.10;;
70126;SDS011;57491;42.694;23.314;2022-09-28T02:46:35;27.70;;;14.20;;
70126;SDS011;57491;42.694;23.314;2022-09-28T02:49:12;24.55;;;14.00;;
70126;SDS011;57491;42.694;23.314;2022-09-28T02:51:50;22.75;;;13.88;;
70126;SDS011;57491;42.694;23.314;2022-09-28T02:54:52;22.45;;;14.23;;
70126;SDS011;57491;42.694;23.314;2022-09-28T02:57:41;24.88;;;13.50;;
70126;SDS011;57491;42.694;23.314;2022-09-28T03:00:21;24.42;;;15.35;;
70126;SDS011;57491;42.694;23.314;2022-09-28T03:02:50;29.98;;;15.68;;
70126;SDS011;57491;42.694;23.314;2022-09-28T03:05:29;53.03;;;15.25;;
70126;SDS011;57491;42.694;23.314;2022-09-28T03:08:01;27.95;;;13.55;;
70126;SDS011;57491;42.694;23.314;2022-09-28T03:10:32;43.58;;;14.88;;
70126;SDS011;57491;42.694;23.314;2022-09-28T03:13:05;43.35;;;14.55;;
70126;SDS011;57491;42.694;23.314;2022-09-28T03:15:35;34.45;;;11.63;;
70126;SDS011;57491;42.694;23.314;2022-09-28T03:18:03;72.60;;;13.70;;
70126;SDS011;57491;42.694;23.314;2022-09-28T03:20:30;32.88;;;13.18;;
70126;SDS011;57491;42.694;23.314;2022-09-28T03:22:58;36.30;;;13.68;;
70126;SDS011;57491;42.694;23.314;2022-09-28T03:25:25;24.02;;;13.63;;
70126;SDS011;57491;42.694;23.314;2022-09-28T03:27:53;24.45;;;13.43;;
70126;SDS011;57491;42.694;23.314;2022-09-28T03:30:20;21.73;;;12.68;;
70126;SDS011;57491;42.694;23.314;2022-09-28T03:32:56;23.98;;;12.32;;
70126;SDS011;57491;42.694;23.314;2022-09-28T03:35:24;24.73;;;14.00;;
70126;SDS011;57491;42.694;23.314;2022-09-28T03:37:53;26.10;;;14.20;;
70126;SDS011;57491;42.694;23.314;2022-09-28T03:40:20;23.05;;;13.60;;
70126;SDS011;57491;42.694;23.314;2022-09-28T03:42:47;28.33;;;13.57;;
70126;SDS011;57491;42.694;23.314;2022-09-28T03:45:14;28.05;;;15.40;;
70126;SDS011;57491;42.694;23.314;2022-09-28T03:47:44;33.47;;;15.67;;
70126;SDS011;57491;42.694;23.314;2022-09-28T03:50:14;65.63;;;37.38;;
70126;SDS011;57491;42.694;23.314;2022-09-28T03:52:41;39.78;;;19.80;;
70126;SDS011;57491;42.694;23.314;2022-09-28T03:55:09;51.67;;;16.98;;
70126;SDS011;57491;42.694;23.314;2022-09-28T03:57:36;34.22;;;16.88;;
70126;SDS011;57491;42.694;23.314;2022-09-28T04:00:03;36.75;;;16.63;;
70126;SDS011;57491;42.694;23.314;2022-09-28T04:02:32;31.80;;;16.88;;
70126;SDS011;57491;42.694;23.314;2022-09-28T04:05:00;31.48;;;16.33;;
70126;SDS011;57491;42.694;23.314;2022-09-28T04:07:29;31.15;;;15.88;;
70126;SDS011;57491;42.694;23.314;2022-09-28T04:09:56;27.67;;;16.15;;
70126;SDS011;57491;42.694;23.314;2022-09-28T04:12:23;32.50;;;16.95;;
70126;SDS011;57491;42.694;23.314;2022-09-28T04:14:50;31.55;;;15.30;;
70126;SDS011;57491;42.694;23.314;2022-09-28T04:17:17;27.83;;;15.95;;
70126;SDS011;57491;42.694;23.314;2022-09-28T04:19:44;47.47;;;17.90;;
70126;SDS011;57491;42.694;23.314;2022-09-28T04:22:11;26.17;;;14.82;;
70126;SDS011;57491;42.694;23.314;2022-09-28T04:24:40;25.88;;;14.40;;
70126;SDS011;57491;42.694;23.314;2022-09-28T04:27:07;23.70;;;15.10;;
70126;SDS011;57491;42.694;23.314;2022-09-28T04:29:52;31.45;;;14.50;;
70126;SDS011;57491;42.694;23.314;2022-09-28T04:32:19;29.43;;;15.20;;
70126;SDS011;57491;42.694;23.314;2022-09-28T04:34:46;29.90;;;15.82;;
70126;SDS011;57491;42.694;23.314;2022-09-28T04:37:13;26.40;;;14.00;;
70126;SDS011;57491;42.694;23.314;2022-09-28T04:39:42;26.70;;;14.38;;
70126;SDS011;57491;42.694;23.314;2022-09-28T04:42:09;27.05;;;14.98;;
70126;SDS011;57491;42.694;23.314;2022-09-28T04:44:36;26.40;;;14.52;;
70126;SDS011;57491;42.694;23.314;2022-09-28T04:47:03;31.40;;;14.90;;
70126;SDS011;57491;42.694;23.314;2022-09-28T04:49:30;26.00;;;14.07;;
70126;SDS011;57491;42.694;23.314;2022-09-28T04:51:59;32.58;;;15.38;;
70126;SDS011;57491;42.694;23.314;2022-09-28T04:54:27;29.40;;;16.02;;
70126;SDS011;57491;42.694;23.314;2022-09-28T04:56:55;32.55;;;15.50;;
70126;SDS011;57491;42.694;23.314;2022-09-28T04:59:23;34.97;;;15.90;;
70126;SDS011;57491;42.694;23.314;2022-09-28T05:01:50;33.73;;;15.10;;
70126;SDS011;57491;42.694;23.314;2022-09-28T05:06:45;27.00;;;14.90;;
70126;SDS011;57491;42.694;23.314;2022-09-28T05:09:12;26.80;;;15.05;;
70126;SDS011;57491;42.694;23.314;2022-09-28T05:11:39;33.60;;;14.88;;
70126;SDS011;57491;42.694;23.314;2022-09-28T05:14:09;30.50;;;16.23;;
70126;SDS011;57491;42.694;23.314;2022-09-28T05:16:36;33.22;;;14.02;;
70126;SDS011;57491;42.694;23.314;2022-09-28T05:19:03;33.17;;;16.07;;
70126;SDS011;57491;42.694;23.314;2022-09-28T05:23:58;29.38;;;15.25;;
70126;SDS011;57491;42.694;23.314;2022-09-28T05:26:25;34.23;;;18.00;;
70126;SDS011;57491;42.694;23.314;2022-09-28T05:28:52;34.43;;;16.90;;
70126;SDS011;57491;42.694;23.314;2022-09-28T05:31:21;40.28;;;17.83;;
70126;SDS011;57491;42.694;23.314;2022-09-28T05:33:48;34.33;;;18.08;;
70126;SDS011;57491;42.694;23.314;2022-09-28T05:36:16;38.03;;;17.95;;
70126;SDS011;57491;42.694;23.314;2022-09-28T05:38:43;31.77;;;18.58;;
70126;SDS011;57491;42.694;23.314;2022-09-28T05:41:10;33.17;;;19.03;;
70126;SDS011;57491;42.694;23.314;2022-09-28T05:43:38;36.17;;;19.77;;
70126;SDS011;57491;42.694;23.314;2022-09-28T05:46:05;32.22;;;17.73;;
70126;SDS011;57491;42.694;23.314;2022-09-28T05:48:34;24.50;;;16.30;;
70126;SDS011;57491;42.694;23.314;2022-09-28T05:51:01;45.08;;;21.90;;
70126;SDS011;57491;42.694;23.314;2022-09-28T05:53:28;37.97;;;18.00;;
70126;SDS011;57491;42.694;23.314;2022-09-28T05:55:56;32.70;;;16.93;;
70126;SDS011;57491;42.694;23.314;2022-09-28T05:58:23;34.83;;;18.98;;
70126;SDS011;57491;42.694;23.314;2022-09-28T06:00:52;31.13;;;16.75;;
70126;SDS011;57491;42.694;23.314;2022-09-28T06:03:20;32.70;;;19.67;;
70126;SDS011;57491;42.694;23.314;2022-09-28T06:08:16;29.60;;;17.20;;
70126;SDS011;57491;42.694;23.314;2022-09-28T06:10:43;36.47;;;19.83;;
70126;SDS011;57491;42.694;23.314;2022-09-28T06:13:10;35.53;;;17.83;;
70126;SDS011;57491;42.694;23.314;2022-09-28T06:15:37;41.20;;;20.40;;
70126;SDS011;57491;42.694;23.314;2022-09-28T06:18:09;39.17;;;18.65;;
70126;SDS011;57491;42.694;23.314;2022-09-28T06:20:38;39.28;;;19.98;;
70126;SDS011;57491;42.694;23.314;2022-09-28T06:23:08;41.22;;;20.13;;
70126;SDS011;57491;42.694;23.314;2022-09-28T06:25:35;41.55;;;20.23;;
70126;SDS011;57491;42.694;23.314;2022-09-28T06:28:03;36.97;;;18.98;;
70126;SDS011;57491;42.694;23.314;2022-09-28T06:30:33;36.42;;;21.45;;
70126;SDS011;57491;42.694;23.314;2022-09-28T06:33:02;37.38;;;18.13;;
70126;SDS011;57491;42.694;23.314;2022-09-28T06:35:31;47.35;;;20.77;;
70126;SDS011;57491;42.694;23.314;2022-09-28T06:37:58;40.40;;;21.25;;
70126;SDS011;57491;42.694;23.314;2022-09-28T06:40:28;50.40;;;21.60;;
70126;SDS011;57491;42.694;23.314;2022-09-28T06:42:56;43.15;;;21.35;;
70126;SDS011;57491;42.694;23.314;2022-09-28T06:45:24;46.95;;;21.83;;
70126;SDS011;57491;42.694;23.314;2022-09-28T06:47:52;40.72;;;19.67;;
70126;SDS011;57491;42.694;23.314;2022-09-28T06:50:21;40.90;;;21.63;;
70126;SDS011;57491;42.694;23.314;2022-09-28T06:52:49;41.38;;;21.80;;
70126;SDS011;57491;42.694;23.314;2022-09-28T06:55:17;36.92;;;20.48;;
70126;SDS011;57491;42.694;23.314;2022-09-28T06:57:46;68.53;;;39.67;;
70126;SDS011;57491;42.694;23.314;2022-09-28T07:00:14;34.95;;;20.15;;
70126;SDS011;57491;42.694;23.314;2022-09-28T07:02:41;30.70;;;19.55;;
70126;SDS011;57491;42.694;23.314;2022-09-28T07:05:10;34.60;;;18.93;;
70126;SDS011;57491;42.694;23.314;2022-09-28T07:07:39;32.53;;;18.00;;
70126;SDS011;57491;42.694;23.314;2022-09-28T07:10:09;32.55;;;17.80;;
70126;SDS011;57491;42.694;23.314;2022-09-28T07:12:37;29.48;;;17.30;;
70126;SDS011;57491;42.694;23.314;2022-09-28T07:15:07;47.83;;;18.48;;
70126;SDS011;57491;42.694;23.314;2022-09-28T07:17:34;29.88;;;16.02;;
70126;SDS011;57491;42.694;23.314;2022-09-28T07:20:01;22.40;;;15.77;;
70126;SDS011;57491;42.694;23.314;2022-09-28T07:22:29;30.88;;;16.33;;
70126;SDS011;57491;42.694;23.314;2022-09-28T07:24:56;22.65;;;14.60;;
70126;SDS011;57491;42.694;23.314;2022-09-28T07:27:23;39.70;;;18.27;;
70126;SDS011;57491;42.694;23.314;2022-09-28T07:29:50;22.40;;;14.50;;
70126;SDS011;57491;42.694;23.314;2022-09-28T07:32:20;26.80;;;17.10;;
70126;SDS011;57491;42.694;23.314;2022-09-28T07:34:48;21.20;;;15.30;;
70126;SDS011;57491;42.694;23.314;2022-09-28T07:37:16;21.70;;;15.43;;
70126;SDS011;57491;42.694;23.314;2022-09-28T07:42:28;18.75;;;14.98;;
70126;SDS011;57491;42.694;23.314;2022-09-28T07:44:56;26.20;;;17.42;;
70126;SDS011;57491;42.694;23.314;2022-09-28T07:47:25;25.88;;;17.90;;
70126;SDS011;57491;42.694;23.314;2022-09-28T07:49:53;26.50;;;19.08;;
70126;SDS011;57491;42.694;23.314;2022-09-28T07:52:21;21.38;;;16.08;;
70126;SDS011;57491;42.694;23.314;2022-09-28T07:54:50;32.53;;;18.33;;
70126;SDS011;57491;42.694;23.314;2022-09-28T07:57:18;26.77;;;18.13;;
70126;SDS011;57491;42.694;23.314;2022-09-28T07:59:46;35.92;;;20.75;;
70126;SDS011;57491;42.694;23.314;2022-09-28T08:02:14;24.17;;;17.58;;
70126;SDS011;57491;42.694;23.314;2022-09-28T08:04:46;29.95;;;19.00;;
70126;SDS011;57491;42.694;23.314;2022-09-28T08:07:13;29.92;;;17.77;;
70126;SDS011;57491;42.694;23.314;2022-09-28T08:09:41;22.45;;;15.57;;
70126;SDS011;57491;42.694;23.314;2022-09-28T08:12:09;27.05;;;16.00;;
70126;SDS011;57491;42.694;23.314;2022-09-28T08:14:36;17.63;;;13.48;;
70126;SDS011;57491;42.694;23.314;2022-09-28T08:17:04;19.00;;;12.18;;
70126;SDS011;57491;42.694;23.314;2022-09-28T08:19:32;17.52;;;10.75;;
70126;SDS011;57491;42.694;23.314;2022-09-28T08:22:17;14.00;;;9.27;;
70126;SDS011;57491;42.694;23.314;2022-09-28T08:24:45;16.02;;;9.85;;
70126;SDS011;57491;42.694;23.314;2022-09-28T08:27:13;17.95;;;10.07;;
70126;SDS011;57491;42.694;23.314;2022-09-28T08:29:41;17.45;;;10.75;;
70126;SDS011;57491;42.694;23.314;2022-09-28T08:32:09;13.23;;;9.63;;
70126;SDS011;57491;42.694;23.314;2022-09-28T08:34:36;14.60;;;8.65;;
70126;SDS011;57491;42.694;23.314;2022-09-28T08:37:04;19.35;;;11.18;;
70126;SDS011;57491;42.694;23.314;2022-09-28T08:39:35;18.60;;;10.32;;
70126;SDS011;57491;42.694;23.314;2022-09-28T08:42:05;19.60;;;10.38;;
70126;SDS011;57491;42.694;23.314;2022-09-28T08:44:42;15.10;;;9.48;;
70126;SDS011;57491;42.694;23.314;2022-09-28T08:47:12;15.57;;;8.45;;
70126;SDS011;57491;42.694;23.314;2022-09-28T08:49:56;15.43;;;9.18;;
70126;SDS011;57491;42.694;23.314;2022-09-28T08:52:27;14.15;;;7.97;;
70126;SDS011;57491;42.694;23.314;2022-09-28T08:55:03;18.40;;;9.77;;
70126;SDS011;57491;42.694;23.314;2022-09-28T08:57:38;15.10;;;8.18;;
70126;SDS011;57491;42.694;23.314;2022-09-28T09:00:13;13.55;;;6.90;;
70126;SDS011;57491;42.694;23.314;2022-09-28T09:02:43;18.98;;;7.80;;
70126;SDS011;57491;42.694;23.314;2022-09-28T09:05:12;21.52;;;9.27;;
70126;SDS011;57491;42.694;23.314;2022-09-28T09:13:31;19.25;;;7.40;;
70126;SDS011;57491;42.694;23.314;2022-09-28T09:16:14;11.65;;;5.75;;
70126;SDS011;57491;42.694;23.314;2022-09-28T09:18:52;9.35;;;6.47;;
70126;SDS011;57491;42.694;23.314;2022-09-28T09:21:27;19.20;;;6.93;;
70126;SDS011;57491;42.694;23.314;2022-09-28T09:24:07;10.85;;;6.72;;
70126;SDS011;57491;42.694;23.314;2022-09-28T09:26:47;10.77;;;7.20;;
70126;SDS011;57491;42.694;23.314;2022-09-28T09:29:26;26.02;;;10.65;;
70126;SDS011;57491;42.694;23.314;2022-09-28T09:32:04;11.35;;;6.43;;
70126;SDS011;57491;42.694;23.314;2022-09-28T09:35:02;11.88;;;6.03;;
70126;SDS011;57491;42.694;23.314;2022-09-28T09:37:48;19.38;;;7.97;;
70126;SDS011;57491;42.694;23.314;2022-09-28T09:40:32;10.57;;;6.05;;
70126;SDS011;57491;42.694;23.314;2022-09-28T09:43:21;26.55;;;9.20;;
70126;SDS011;57491;42.694;23.314;2022-09-28T09:46:05;12.38;;;6.20;;
70126;SDS011;57491;42.694;23.314;2022-09-28T09:48:43;9.47;;;5.97;;
70126;SDS011;57491;42.694;23.314;2022-09-28T09:51:16;11.25;;;5.43;;
70126;SDS011;57491;42.694;23.314;2022-09-28T09:53:50;14.82;;;6.50;;
70126;SDS011;57491;42.694;23.314;2022-09-28T09:56:26;14.45;;;5.57;;
70126;SDS011;57491;42.694;23.314;2022-09-28T09:58:59;8.13;;;6.20;;
70126;SDS011;57491;42.694;23.314;2022-09-28T10:01:33;12.77;;;6.10;;
70126;SDS011;57491;42.694;23.314;2022-09-28T10:04:04;12.20;;;6.72;;
70126;SDS011;57491;42.694;23.314;2022-09-28T10:06:44;11.77;;;6.03;;
70126;SDS011;57491;42.694;23.314;2022-09-28T10:09:15;16.67;;;5.57;;
70126;SDS011;57491;42.694;23.314;2022-09-28T10:11:49;7.07;;;3.38;;
70126;SDS011;57491;42.694;23.314;2022-09-28T10:14:19;12.80;;;5.22;;
70126;SDS011;57491;42.694;23.314;2022-09-28T10:16:47;7.43;;;3.83;;
70126;SDS011;57491;42.694;23.314;2022-09-28T10:19:17;8.80;;;5.78;;
70126;SDS011;57491;42.694;23.314;2022-09-28T10:21:46;7.68;;;3.30;;
70126;SDS011;57491;42.694;23.314;2022-09-28T10:24:16;11.15;;;4.75;;
70126;SDS011;57491;42.694;23.314;2022-09-28T10:26:49;8.48;;;3.38;;
70126;SDS011;57491;42.694;23.314;2022-09-28T10:29:22;12.82;;;4.57;;
70126;SDS011;57491;42.694;23.314;2022-09-28T10:31:51;10.73;;;3.30;;
70126;SDS011;57491;42.694;23.314;2022-09-28T10:34:24;8.23;;;3.97;;
70126;SDS011;57491;42.694;23.314;2022-09-28T10:36:52;11.18;;;4.30;;
70126;SDS011;57491;42.694;23.314;2022-09-28T10:39:32;15.07;;;4.57;;
70126;SDS011;57491;42.694;23.314;2022-09-28T10:42:02;11.18;;;4.30;;
70126;SDS011;57491;42.694;23.314;2022-09-28T10:44:46;10.15;;;3.90;;
70126;SDS011;57491;42.694;23.314;2022-09-28T10:47:18;9.18;;;5.15;;
70126;SDS011;57491;42.694;23.314;2022-09-28T10:49:48;17.80;;;6.97;;
70126;SDS011;57491;42.694;23.314;2022-09-28T10:52:30;17.95;;;6.47;;
70126;SDS011;57491;42.694;23.314;2022-09-28T10:55:02;12.23;;;4.53;;
70126;SDS011;57491;42.694;23.314;2022-09-28T10:57:51;4.90;;;2.70;;
70126;SDS011;57491;42.694;23.314;2022-09-28T11:00:29;13.43;;;3.17;;
70126;SDS011;57491;42.694;23.314;2022-09-28T11:02:59;7.90;;;2.67;;
70126;SDS011;57491;42.694;23.314;2022-09-28T11:05:27;8.52;;;3.10;;
70126;SDS011;57491;42.694;23.314;2022-09-28T11:07:55;17.15;;;3.90;;
70126;SDS011;57491;42.694;23.314;2022-09-28T11:10:25;8.98;;;3.17;;
70126;SDS011;57491;42.694;23.314;2022-09-28T11:12:54;5.60;;;2.30;;
70126;SDS011;57491;42.694;23.314;2022-09-28T11:15:23;9.20;;;3.40;;
70126;SDS011;57491;42.694;23.314;2022-09-28T11:17:54;7.60;;;4.10;;
70126;SDS011;57491;42.694;23.314;2022-09-28T11:20:30;4.47;;;2.78;;
70126;SDS011;57491;42.694;23.314;2022-09-28T11:23:14;10.75;;;3.10;;
70126;SDS011;57491;42.694;23.314;2022-09-28T11:25:54;8.18;;;3.22;;
70126;SDS011;57491;42.694;23.314;2022-09-28T11:28:23;4.50;;;2.97;;
70126;SDS011;57491;42.694;23.314;2022-09-28T11:30:56;6.53;;;2.83;;
70126;SDS011;57491;42.694;23.314;2022-09-28T11:33:27;5.38;;;2.95;;
70126;SDS011;57491;42.694;23.314;2022-09-28T11:36:00;3.42;;;2.40;;
70126;SDS011;57491;42.694;23.314;2022-09-28T11:38:35;6.35;;;3.10;;
70126;SDS011;57491;42.694;23.314;2022-09-28T11:41:11;6.47;;;2.47;;
70126;SDS011;57491;42.694;23.314;2022-09-28T11:43:58;12.25;;;4.15;;
70126;SDS011;57491;42.694;23.314;2022-09-28T11:46:34;7.90;;;3.92;;
70126;SDS011;57491;42.694;23.314;2022-09-28T11:49:14;13.55;;;4.93;;
70126;SDS011;57491;42.694;23.314;2022-09-28T11:51:52;16.85;;;12.75;;
70126;SDS011;57491;42.694;23.314;2022-09-28T11:54:25;10.75;;;3.30;;
70126;SDS011;57491;42.694;23.314;2022-09-28T11:56:58;4.82;;;2.08;;
70126;SDS011;57491;42.694;23.314;2022-09-28T11:59:27;5.30;;;2.55;;
70126;SDS011;57491;42.694;23.314;2022-09-28T12:01:59;7.47;;;2.67;;
70126;SDS011;57491;42.694;23.314;2022-09-28T12:04:38;3.42;;;2.05;;
70126;SDS011;57491;42.694;23.314;2022-09-28T12:07:10;2.50;;;1.48;;
70126;SDS011;57491;42.694;23.314;2022-09-28T12:09:44;6.25;;;1.90;;
70126;SDS011;57491;42.694;23.314;2022-09-28T12:12:20;4.90;;;2.25;;
70126;SDS011;57491;42.694;23.314;2022-09-28T12:14:50;2.88;;;1.73;;
70126;SDS011;57491;42.694;23.314;2022-09-28T12:17:22;8.32;;;3.15;;
70126;SDS011;57491;42.694;23.314;2022-09-28T12:19:52;5.68;;;2.67;;
70126;SDS011;57491;42.694;23.314;2022-09-28T12:22:28;13.60;;;3.20;;
70126;SDS011;57491;42.694;23.314;2022-09-28T12:24:58;5.13;;;2.08;;
70126;SDS011;57491;42.694;23.314;2022-09-28T12:27:28;4.72;;;2.08;;
70126;SDS011;57491;42.694;23.314;2022-09-28T12:30:11;7.82;;;2.47;;
70126;SDS011;57491;42.694;23.314;2022-09-28T12:32:42;12.93;;;2.10;;
70126;SDS011;57491;42.694;23.314;2022-09-28T12:35:23;7.20;;;2.60;;
70126;SDS011;57491;42.694;23.314;2022-09-28T12:38:13;6.35;;;2.95;;
70126;SDS011;57491;42.694;23.314;2022-09-28T12:40:51;5.05;;;2.03;;
70126;SDS011;57491;42.694;23.314;2022-09-28T12:43:29;6.30;;;2.30;;
70126;SDS011;57491;42.694;23.314;2022-09-28T12:46:22;11.30;;;3.35;;
70126;SDS011;57491;42.694;23.314;2022-09-28T12:49:12;6.38;;;2.00;;
70126;SDS011;57491;42.694;23.314;2022-09-28T12:51:50;5.50;;;2.30;;
70126;SDS011;57491;42.694;23.314;2022-09-28T12:54:24;6.18;;;1.85;;
70126;SDS011;57491;42.694;23.314;2022-09-28T12:57:06;5.00;;;1.85;;
70126;SDS011;57491;42.694;23.314;2022-09-28T12:59:57;4.05;;;1.65;;
70126;SDS011;57491;42.694;23.314;2022-09-28T13:02:40;4.15;;;1.42;;
70126;SDS011;57491;42.694;23.314;2022-09-28T13:05:41;5.05;;;1.67;;
70126;SDS011;57491;42.694;23.314;2022-09-28T13:08:29;2.78;;;1.10;;
70126;SDS011;57491;42.694;23.314;2022-09-28T13:11:07;7.75;;;2.13;;
70126;SDS011;57491;42.694;23.314;2022-09-28T13:13:47;6.88;;;1.90;;
70126;SDS011;57491;42.694;23.314;2022-09-28T13:16:28;4.68;;;1.70;;
70126;SDS011;57491;42.694;23.314;2022-09-28T13:19:05;10.45;;;2.08;;
70126;SDS011;57491;42.694;23.314;2022-09-28T13:24:17;8.50;;;2.55;;
70126;SDS011;57491;42.694;23.314;2022-09-28T13:26:51;6.13;;;1.98;;
70126;SDS011;57491;42.694;23.314;2022-09-28T13:29:21;7.55;;;2.25;;
70126;SDS011;57491;42.694;23.314;2022-09-28T13:31:52;4.63;;;2.20;;
70126;SDS011;57491;42.694;23.314;2022-09-28T13:34:23;3.60;;;1.85;;
70126;SDS011;57491;42.694;23.314;2022-09-28T13:37:07;4.15;;;2.00;;
70126;SDS011;57491;42.694;23.314;2022-09-28T13:39:49;6.10;;;1.95;;
70126;SDS011;57491;42.694;23.314;2022-09-28T13:42:25;4.30;;;1.50;;
70126;SDS011;57491;42.694;23.314;2022-09-28T13:48:00;10.65;;;2.47;;
70126;SDS011;57491;42.694;23.314;2022-09-28T13:50:51;7.95;;;2.15;;
70126;SDS011;57491;42.694;23.314;2022-09-28T13:53:40;5.45;;;1.70;;
70126;SDS011;57491;42.694;23.314;2022-09-28T13:56:29;3.65;;;1.80;;
70126;SDS011;57491;42.694;23.314;2022-09-28T13:59:02;14.40;;;2.33;;
70126;SDS011;57491;42.694;23.314;2022-09-28T14:01:43;4.72;;;1.63;;
70126;SDS011;57491;42.694;23.314;2022-09-28T14:04:17;5.18;;;1.63;;
70126;SDS011;57491;42.694;23.314;2022-09-28T14:06:48;12.38;;;2.53;;
70126;SDS011;57491;42.694;23.314;2022-09-28T14:12:42;9.50;;;2.72;;
70126;SDS011;57491;42.694;23.314;2022-09-28T14:18:24;4.40;;;1.47;;
70126;SDS011;57491;42.694;23.314;2022-09-28T14:21:05;5.82;;;1.85;;
70126;SDS011;57491;42.694;23.314;2022-09-28T14:23:54;5.93;;;1.30;;
70126;SDS011;57491;42.694;23.314;2022-09-28T14:26:38;4.63;;;1.52;;
70126;SDS011;57491;42.694;23.314;2022-09-28T14:29:40;3.55;;;1.55;;
70126;SDS011;57491;42.694;23.314;2022-09-28T14:32:20;3.72;;;1.95;;
70126;SDS011;57491;42.694;23.314;2022-09-28T14:34:53;5.35;;;1.40;;
70126;SDS011;57491;42.694;23.314;2022-09-28T14:37:24;7.97;;;2.40;;
70126;SDS011;57491;42.694;23.314;2022-09-28T14:40:17;5.97;;;1.88;;
70126;SDS011;57491;42.694;23.314;2022-09-28T14:45:49;5.80;;;2.10;;
70126;SDS011;57491;42.694;23.314;2022-09-28T14:48:19;5.10;;;1.90;;
70126;SDS011;57491;42.694;23.314;2022-09-28T14:54:13;3.03;;;1.20;;
70126;SDS011;57491;42.694;23.314;2022-09-28T14:56:48;2.97;;;1.80;;
70126;SDS011;57491;42.694;23.314;2022-09-28T14:59:38;4.63;;;1.63;;
70126;SDS011;57491;42.694;23.314;2022-09-28T15:02:11;3.47;;;1.75;;
70126;SDS011;57491;42.694;23.314;2022-09-28T15:04:44;3.88;;;1.58;;
70126;SDS011;57491;42.694;23.314;2022-09-28T15:07:18;3.72;;;1.15;;
70126;SDS011;57491;42.694;23.314;2022-09-28T15:09:48;4.85;;;1.20;;
70126;SDS011;57491;42.694;23.314;2022-09-28T15:12:17;7.78;;;2.20;;
70126;SDS011;57491;42.694;23.314;2022-09-28T15:14:48;4.30;;;1.35;;
70126;SDS011;57491;42.694;23.314;2022-09-28T15:17:20;4.03;;;1.40;;
70126;SDS011;57491;42.694;23.314;2022-09-28T15:20:02;4.30;;;1.35;;
70126;SDS011;57491;42.694;23.314;2022-09-28T15:22:48;2.15;;;1.25;;
70126;SDS011;57491;42.694;23.314;2022-09-28T15:25:17;3.05;;;1.10;;
70126;SDS011;57491;42.694;23.314;2022-09-28T15:27:49;6.05;;;1.33;;
70126;SDS011;57491;42.694;23.314;2022-09-28T15:30:25;4.53;;;1.40;;
70126;SDS011;57491;42.694;23.314;2022-09-28T15:32:59;5.22;;;1.45;;